createdAt,value
2022-08-27T00:01:47.585Z,24.40
2022-08-27T00:03:50.291Z,30.47
2022-08-27T00:05:52.616Z,23.20
2022-08-27T00:07:54.699Z,22.10
2022-08-27T00:09:56.740Z,28.57
2022-08-27T00:11:58.930Z,28.33
2022-08-27T00:14:01.611Z,28.63
2022-08-27T00:16:05.166Z,22.67
2022-08-27T00:18:07.518Z,23.23
2022-08-27T00:20:09.915Z,27.23
2022-08-27T00:22:12.631Z,25.80
2022-08-27T00:24:14.775Z,33.20
2022-08-27T00:26:17.462Z,28.97
2022-08-27T00:28:19.608Z,29.80
2022-08-27T00:30:23.218Z,30.27
2022-08-27T00:32:26.963Z,31.20
2022-08-27T00:34:29.065Z,35.77
2022-08-27T00:36:31.222Z,26.70
2022-08-27T00:38:33.690Z,27.33
2022-08-27T00:40:36.139Z,29.70
2022-08-27T00:42:38.433Z,23.70
2022-08-27T00:44:40.615Z,24.10
2022-08-27T00:46:55.167Z,23.73
2022-08-27T00:49:01.509Z,26.33
2022-08-27T00:51:04.741Z,29.30
2022-08-27T00:53:17.042Z,24.60
2022-08-27T00:55:21.977Z,33.23
2022-08-27T00:57:24.200Z,30.13
2022-08-27T00:59:32.910Z,27.73
2022-08-27T01:01:35.978Z,25.73
2022-08-27T01:03:38.490Z,34.87
2022-08-27T01:05:41.753Z,22.03
2022-08-27T01:07:47.700Z,24.67
2022-08-27T01:09:51.483Z,30.27
2022-08-27T01:11:55.983Z,23.63
2022-08-27T01:14:00.891Z,22.40
2022-08-27T01:16:03.867Z,30.90
2022-08-27T01:18:06.782Z,24.37
2022-08-27T01:20:16.847Z,30.00
2022-08-27T01:22:53.502Z,25.30
2022-08-27T01:24:59.350Z,21.93
2022-08-27T01:27:02.270Z,22.43
2022-08-27T01:29:04.777Z,20.73
2022-08-27T01:31:08.170Z,18.07
2022-08-27T01:33:15.955Z,25.10
2022-08-27T01:35:19.044Z,30.23
2022-08-27T01:37:23.877Z,22.47
2022-08-27T01:39:26.430Z,23.17
2022-08-27T01:41:30.065Z,22.40
2022-08-27T01:43:32.184Z,27.40
2022-08-27T01:45:40.946Z,30.53
2022-08-27T01:47:43.013Z,28.27
2022-08-27T01:49:45.170Z,27.90
2022-08-27T01:51:47.178Z,31.27
2022-08-27T01:53:50.976Z,26.30
2022-08-27T01:55:54.086Z,23.70
2022-08-27T01:57:56.410Z,27.80
2022-08-27T01:59:58.571Z,25.80
2022-08-27T02:02:02.740Z,27.20
2022-08-27T02:04:04.849Z,24.50
2022-08-27T02:06:09.964Z,22.43
2022-08-27T02:08:15.987Z,22.50
2022-08-27T02:10:24.190Z,23.63
2022-08-27T02:12:27.884Z,22.90
2022-08-27T02:14:30.031Z,17.63
2022-08-27T02:16:37.120Z,19.20
2022-08-27T02:18:44.770Z,23.90
2022-08-27T02:20:47.602Z,23.90
2022-08-27T02:22:50.147Z,17.80
2022-08-27T02:24:52.223Z,20.40
2022-08-27T02:26:55.292Z,17.80
2022-08-27T02:28:57.334Z,21.10
2022-08-27T02:30:59.428Z,20.07
2022-08-27T02:33:02.652Z,19.37
2022-08-27T02:35:05.826Z,17.70
2022-08-27T02:37:07.853Z,22.27
2022-08-27T02:39:10.053Z,20.03
2022-08-27T02:41:12.095Z,19.60
2022-08-27T02:43:15.820Z,22.13
2022-08-27T02:45:19.131Z,21.83
2022-08-27T02:47:21.264Z,15.57
2022-08-27T02:49:23.265Z,19.93
2022-08-27T02:51:25.442Z,19.27
2022-08-27T02:53:28.549Z,14.50
2022-08-27T02:55:31.066Z,22.13
2022-08-27T02:57:36.638Z,18.43
2022-08-27T02:59:38.904Z,18.07
2022-08-27T03:01:41.151Z,15.40
2022-08-27T03:03:43.722Z,17.07
2022-08-27T03:05:45.751Z,16.07
2022-08-27T03:07:47.998Z,19.47
2022-08-27T03:09:51.445Z,24.93
2022-08-27T03:11:53.777Z,17.77
2022-08-27T03:13:55.912Z,16.23
2022-08-27T03:15:58.071Z,14.70
2022-08-27T03:18:18.373Z,20.20
2022-08-27T03:20:20.764Z,13.50
2022-08-27T03:22:22.799Z,15.80
2022-08-27T03:24:24.778Z,17.77
2022-08-27T03:26:27.175Z,15.23
2022-08-27T03:28:32.913Z,21.83
2022-08-27T03:30:35.040Z,12.73
2022-08-27T03:32:37.410Z,12.97
2022-08-27T03:34:39.651Z,17.57
2022-08-27T03:36:41.744Z,14.20
2022-08-27T03:38:43.776Z,20.23
2022-08-27T03:40:45.812Z,16.90
2022-08-27T03:42:48.063Z,16.30
2022-08-27T03:44:50.088Z,18.30
2022-08-27T03:46:52.686Z,19.57
2022-08-27T03:48:57.487Z,14.60
2022-08-27T03:51:08.980Z,17.27
2022-08-27T03:53:11.228Z,15.13
2022-08-27T03:55:13.552Z,18.10
2022-08-27T03:57:15.589Z,17.93
2022-08-27T03:59:17.955Z,15.10
2022-08-27T04:01:20.254Z,19.30
2022-08-27T04:03:22.530Z,16.73
2022-08-27T04:05:24.602Z,18.80
2022-08-27T04:07:26.716Z,16.77
2022-08-27T04:09:28.681Z,14.93
2022-08-27T04:11:31.027Z,20.70
2022-08-27T04:13:33.089Z,15.83
2022-08-27T04:15:35.123Z,18.47
2022-08-27T04:17:43.043Z,14.67
2022-08-27T04:19:45.106Z,15.13
2022-08-27T04:21:47.091Z,18.27
2022-08-27T04:23:49.133Z,15.17
2022-08-27T04:25:51.229Z,13.73
2022-08-27T04:27:53.959Z,15.97
2022-08-27T04:29:58.277Z,16.03
2022-08-27T04:32:00.391Z,15.90
2022-08-27T04:34:02.542Z,19.07
2022-08-27T04:36:08.370Z,16.23
2022-08-27T04:38:10.484Z,17.03
2022-08-27T04:40:12.679Z,19.30
2022-08-27T04:42:18.261Z,23.10
2022-08-27T04:44:20.583Z,19.37
2022-08-27T04:46:23.165Z,22.47
2022-08-27T04:48:25.809Z,25.20
2022-08-27T04:50:27.857Z,27.77
2022-08-27T04:52:32.078Z,22.80
2022-08-27T04:54:34.833Z,24.70
2022-08-27T04:56:37.926Z,26.17
2022-08-27T04:58:40.066Z,24.83
2022-08-27T05:00:48.621Z,19.57
2022-08-27T05:02:50.984Z,24.80
2022-08-27T05:04:53.128Z,30.80
2022-08-27T05:06:55.669Z,23.33
2022-08-27T05:08:57.700Z,28.20
2022-08-27T05:11:00.599Z,26.83
2022-08-27T05:13:02.606Z,30.37
2022-08-27T05:15:05.067Z,29.20
2022-08-27T05:17:07.239Z,33.73
2022-08-27T05:19:11.240Z,25.90
2022-08-27T05:21:27.820Z,19.70
2022-08-27T05:23:29.890Z,31.43
2022-08-27T05:25:31.820Z,30.27
2022-08-27T05:27:33.854Z,31.50
2022-08-27T05:29:35.996Z,34.20
2022-08-27T05:31:40.328Z,27.30
2022-08-27T05:33:43.279Z,32.03
2022-08-27T05:35:47.778Z,32.13
2022-08-27T05:37:49.773Z,31.83
2022-08-27T05:39:51.805Z,33.23
2022-08-27T05:41:57.285Z,35.97
2022-08-27T05:44:02.269Z,34.07
2022-08-27T05:46:06.740Z,33.73
2022-08-27T05:48:12.110Z,41.90
2022-08-27T05:50:14.327Z,39.77
2022-08-27T05:52:16.353Z,37.30
2022-08-27T05:54:21.277Z,36.90
2022-08-27T05:56:25.549Z,40.50
2022-08-27T05:58:45.958Z,40.70
2022-08-27T06:01:09.572Z,37.10
2022-08-27T06:03:13.186Z,45.13
2022-08-27T06:05:15.351Z,46.23
2022-08-27T06:07:17.710Z,51.43
2022-08-27T06:09:22.115Z,49.10
2022-08-27T06:11:24.488Z,37.60
2022-08-27T06:13:26.499Z,44.27
2022-08-27T06:15:28.628Z,46.23
2022-08-27T06:17:30.913Z,46.83
2022-08-27T06:19:34.817Z,48.67
2022-08-27T06:21:37.032Z,58.33
2022-08-27T06:23:39.406Z,51.03
2022-08-27T06:25:42.010Z,51.23
2022-08-27T06:27:44.017Z,51.10
2022-08-27T06:29:46.718Z,51.17
2022-08-27T06:31:50.489Z,57.10
2022-08-27T06:33:54.575Z,49.00
2022-08-27T06:36:02.327Z,53.87
2022-08-27T06:38:04.377Z,49.53
2022-08-27T06:40:07.005Z,49.77
2022-08-27T06:42:12.782Z,60.60
2022-08-27T06:44:15.002Z,59.10
2022-08-27T06:46:19.061Z,68.27
2022-08-27T06:48:21.417Z,63.40
2022-08-27T06:50:27.226Z,54.23
2022-08-27T06:52:29.513Z,67.33
2022-08-27T06:54:32.309Z,69.83
2022-08-27T06:56:34.702Z,68.23
2022-08-27T06:58:36.862Z,66.90
2022-08-27T07:00:39.495Z,65.77
2022-08-27T07:02:42.044Z,63.63
2022-08-27T07:04:44.188Z,60.93
2022-08-27T07:06:46.223Z,66.93
2022-08-27T07:08:53.398Z,54.97
2022-08-27T07:10:57.626Z,55.23
2022-08-27T07:13:00.323Z,51.23
2022-08-27T07:15:02.495Z,63.07
2022-08-27T07:17:06.949Z,55.57
2022-08-27T07:19:12.919Z,50.17
2022-08-27T07:21:14.981Z,48.40
2022-08-27T07:23:16.939Z,51.00
2022-08-27T07:25:22.060Z,49.97
2022-08-27T07:27:24.094Z,44.33
2022-08-27T07:29:30.431Z,46.23
2022-08-27T07:31:35.844Z,44.57
2022-08-27T07:33:38.549Z,45.70
2022-08-27T07:35:40.973Z,47.93
2022-08-27T07:37:43.371Z,46.73
2022-08-27T07:39:45.431Z,46.17
2022-08-27T07:42:05.841Z,52.50
2022-08-27T07:44:28.251Z,46.70
2022-08-27T07:46:39.727Z,48.27
2022-08-27T07:48:42.882Z,45.07
2022-08-27T07:50:44.938Z,44.43
2022-08-27T07:52:47.566Z,41.43
2022-08-27T07:54:49.650Z,42.60
2022-08-27T07:56:55.323Z,38.70
2022-08-27T07:58:57.872Z,32.80
2022-08-27T08:00:59.951Z,37.40
2022-08-27T08:03:02.084Z,31.43
2022-08-27T08:05:06.246Z,38.33
2022-08-27T08:07:08.462Z,35.00
2022-08-27T08:09:10.730Z,34.00
2022-08-27T08:11:16.943Z,35.13
2022-08-27T08:13:19.514Z,35.07
2022-08-27T08:15:21.974Z,33.83
2022-08-27T08:17:27.251Z,30.77
2022-08-27T08:19:30.169Z,29.97
2022-08-27T08:21:35.005Z,29.93
2022-08-27T08:23:37.292Z,25.27
2022-08-27T08:25:39.496Z,30.17
2022-08-27T08:27:42.324Z,29.17
2022-08-27T08:29:44.920Z,29.03
2022-08-27T08:31:50.121Z,34.60
2022-08-27T08:33:52.934Z,24.27
2022-08-27T08:35:55.184Z,25.53
2022-08-27T08:37:57.347Z,36.17
2022-08-27T08:39:59.545Z,31.80
2022-08-27T08:42:03.941Z,29.60
2022-08-27T08:44:20.689Z,32.83
2022-08-27T08:46:33.772Z,30.43
2022-08-27T08:48:37.672Z,34.87
2022-08-27T08:50:49.875Z,29.53
2022-08-27T08:53:21.719Z,31.70
2022-08-27T08:55:53.232Z,34.33
2022-08-27T08:58:10.097Z,37.53
2022-08-27T09:00:13.598Z,35.20
2022-08-27T09:02:15.771Z,36.50
2022-08-27T09:04:18.046Z,37.03
2022-08-27T09:06:47.382Z,38.50
2022-08-27T09:08:49.614Z,50.03
2022-08-27T09:11:00.124Z,49.57
2022-08-27T09:13:04.035Z,42.00
2022-08-27T09:15:23.444Z,39.30
2022-08-27T09:17:25.726Z,43.07
2022-08-27T09:19:28.007Z,40.37
2022-08-27T09:21:45.941Z,46.33
2022-08-27T09:24:06.831Z,39.37
2022-08-27T09:26:21.026Z,41.43
2022-08-27T09:28:51.762Z,38.00
2022-08-27T09:30:55.955Z,34.63
2022-08-27T09:33:07.091Z,42.67
2022-08-27T09:35:11.710Z,40.53
2022-08-27T09:37:20.724Z,42.10
2022-08-27T09:39:35.530Z,43.70
2022-08-27T09:41:43.479Z,40.37
2022-08-27T09:43:45.742Z,42.70
2022-08-27T09:45:51.635Z,44.80
2022-08-27T09:48:27.299Z,39.70
2022-08-27T09:50:43.882Z,37.30
2022-08-27T09:52:55.327Z,37.43
2022-08-27T09:54:58.160Z,30.53
2022-08-27T09:57:00.846Z,28.57
2022-08-27T09:59:04.412Z,29.30
2022-08-27T10:01:17.113Z,29.20
2022-08-27T10:03:22.558Z,34.77
2022-08-27T10:05:36.078Z,26.60
2022-08-27T10:07:52.635Z,32.80
2022-08-27T10:10:01.183Z,27.30
2022-08-27T10:12:06.498Z,29.20
2022-08-27T10:14:26.809Z,27.43
2022-08-27T10:16:58.280Z,27.90
2022-08-27T10:19:31.025Z,21.30
2022-08-27T10:22:00.894Z,21.67
2022-08-27T10:24:21.444Z,26.73
2022-08-27T10:26:33.842Z,27.93
2022-08-27T10:28:44.863Z,24.97
2022-08-27T10:31:02.717Z,24.20
2022-08-27T10:33:10.913Z,21.67
2022-08-27T10:35:25.831Z,29.67
2022-08-27T10:37:32.524Z,23.93
2022-08-27T10:39:54.198Z,26.70
2022-08-27T10:42:21.705Z,24.33
2022-08-27T10:44:35.011Z,25.93
2022-08-27T10:46:50.388Z,23.67
2022-08-27T10:49:00.203Z,23.77
2022-08-27T10:51:11.930Z,24.00
2022-08-27T10:53:37.357Z,28.73
2022-08-27T10:55:46.097Z,22.87
2022-08-27T10:58:01.266Z,24.07
2022-08-27T11:00:17.077Z,18.80
2022-08-27T11:02:27.678Z,25.40
2022-08-27T11:04:37.198Z,23.97
2022-08-27T11:06:45.045Z,17.20
2022-08-27T11:08:52.492Z,17.87
2022-08-27T11:11:04.588Z,17.33
2022-08-27T11:13:23.817Z,17.40
2022-08-27T11:15:30.168Z,14.13
2022-08-27T11:17:37.071Z,21.10
2022-08-27T11:20:05.238Z,15.17
2022-08-27T11:22:17.014Z,12.80
2022-08-27T11:24:36.872Z,15.73
2022-08-27T11:26:40.956Z,13.73
2022-08-27T11:28:47.729Z,14.73
2022-08-27T11:31:01.614Z,14.17
2022-08-27T11:33:27.746Z,13.37
2022-08-27T11:35:55.627Z,11.93
2022-08-27T11:38:27.702Z,17.17
2022-08-27T11:40:50.774Z,17.00
2022-08-27T11:42:58.577Z,16.00
2022-08-27T11:45:11.061Z,16.47
2022-08-27T11:47:19.857Z,19.77
2022-08-27T11:49:45.286Z,23.73
2022-08-27T11:51:57.273Z,19.80
2022-08-27T11:54:09.020Z,15.50
2022-08-27T11:56:17.024Z,15.70
2022-08-27T11:58:19.368Z,17.53
2022-08-27T12:00:27.726Z,20.67
2022-08-27T12:02:30.165Z,14.30
2022-08-27T12:04:33.946Z,13.30
2022-08-27T12:06:45.106Z,17.33
2022-08-27T12:08:47.447Z,17.00
2022-08-27T12:11:27.552Z,14.50
2022-08-27T12:13:40.732Z,12.33
2022-08-27T12:16:09.962Z,12.33
2022-08-27T12:18:25.015Z,11.50
2022-08-27T12:20:30.955Z,10.77
2022-08-27T12:22:55.927Z,9.03
2022-08-27T12:24:59.470Z,14.83
2022-08-27T12:27:15.634Z,11.33
2022-08-27T12:29:31.891Z,8.57
2022-08-27T12:31:34.665Z,9.93
2022-08-27T12:33:42.420Z,11.17
2022-08-27T12:35:50.730Z,14.53
2022-08-27T12:37:57.831Z,10.90
2022-08-27T12:40:24.839Z,12.17
2022-08-27T12:42:27.115Z,8.40
2022-08-27T12:44:31.627Z,8.80
2022-08-27T12:46:39.105Z,14.10
2022-08-27T12:48:55.201Z,10.13
2022-08-27T12:51:01.226Z,12.03
2022-08-27T12:53:06.547Z,9.00
2022-08-27T12:55:09.557Z,12.23
2022-08-27T12:57:12.064Z,11.90
2022-08-27T12:59:52.611Z,11.57
2022-08-27T13:01:58.631Z,9.00
2022-08-27T13:04:05.401Z,9.37
2022-08-27T13:06:20.964Z,9.17
2022-08-27T13:08:28.444Z,10.30
2022-08-27T13:10:32.189Z,13.30
2022-08-27T13:12:34.470Z,9.07
2022-08-27T13:14:39.283Z,16.63
2022-08-27T13:16:54.966Z,10.13
2022-08-27T13:18:57.209Z,11.23
2022-08-27T13:21:15.135Z,8.17
2022-08-27T13:23:22.300Z,10.77
2022-08-27T13:25:28.898Z,9.97
2022-08-27T13:27:34.920Z,14.80
2022-08-27T13:29:37.816Z,14.03
2022-08-27T13:31:40.080Z,18.83
2022-08-27T13:33:42.850Z,17.90
2022-08-27T13:35:45.139Z,15.33
2022-08-27T13:37:53.583Z,15.37
2022-08-27T13:39:56.903Z,13.70
2022-08-27T13:42:00.931Z,14.77
2022-08-27T13:44:11.009Z,13.07
2022-08-27T13:46:15.759Z,13.60
2022-08-27T13:48:19.569Z,24.50
2022-08-27T13:50:31.551Z,35.77
2022-08-27T13:52:58.370Z,23.73
2022-08-27T13:55:17.158Z,31.27
2022-08-27T13:57:42.735Z,29.97
2022-08-27T13:59:44.972Z,19.57
2022-08-27T14:02:04.103Z,18.00
2022-08-27T14:04:08.617Z,17.33
2022-08-27T14:06:10.773Z,15.20
2022-08-27T14:08:17.795Z,20.63
2022-08-27T14:10:34.755Z,14.23
2022-08-27T14:12:39.246Z,18.53
2022-08-27T14:14:41.999Z,12.97
2022-08-27T14:16:44.368Z,12.73
2022-08-27T14:19:04.994Z,13.27
2022-08-27T14:21:07.181Z,11.10
2022-08-27T14:23:09.383Z,9.40
2022-08-27T14:25:12.274Z,9.53
2022-08-27T14:27:15.479Z,8.07
2022-08-27T14:29:17.949Z,9.97
2022-08-27T14:31:20.488Z,10.83
2022-08-27T14:33:22.903Z,14.63
2022-08-27T14:35:25.806Z,15.40
2022-08-27T14:37:28.091Z,13.43
2022-08-27T14:39:30.324Z,13.13
2022-08-27T14:41:33.457Z,20.37
2022-08-27T14:43:35.936Z,11.33
2022-08-27T14:45:39.183Z,13.60
2022-08-27T14:47:42.363Z,18.83
2022-08-27T14:49:46.135Z,17.53
2022-08-27T14:51:49.162Z,16.37
2022-08-27T14:53:52.117Z,17.83
2022-08-27T14:55:56.104Z,17.83
2022-08-27T14:57:59.115Z,16.03
2022-08-27T15:00:01.307Z,18.33
2022-08-27T15:02:07.128Z,19.03
2022-08-27T15:04:09.309Z,21.80
2022-08-27T15:06:11.517Z,15.30
2022-08-27T15:08:15.908Z,18.20
2022-08-27T15:10:18.482Z,16.50
2022-08-27T15:12:26.342Z,14.57
2022-08-27T15:14:31.697Z,21.87
2022-08-27T15:16:38.632Z,16.20
2022-08-27T15:18:40.779Z,18.43
2022-08-27T15:20:43.131Z,17.73
2022-08-27T15:22:46.762Z,22.00
2022-08-27T15:24:54.706Z,18.20
2022-08-27T15:27:00.244Z,29.13
2022-08-27T15:29:06.391Z,22.50
2022-08-27T15:31:09.166Z,23.30
2022-08-27T15:33:11.320Z,20.20
2022-08-27T15:35:16.789Z,23.10
2022-08-27T15:37:19.058Z,21.17
2022-08-27T15:39:21.373Z,24.00
2022-08-27T15:41:27.269Z,24.57
2022-08-27T15:43:31.542Z,24.30
2022-08-27T15:45:34.287Z,21.97
2022-08-27T15:47:36.559Z,22.97
2022-08-27T15:49:40.812Z,24.20
2022-08-27T15:51:44.686Z,21.00
2022-08-27T15:53:46.858Z,20.60
2022-08-27T15:55:51.643Z,19.90
2022-08-27T15:57:55.371Z,22.47
2022-08-27T15:59:57.621Z,19.03
2022-08-27T16:02:01.060Z,24.33
2022-08-27T16:04:05.052Z,19.73
2022-08-27T16:06:07.401Z,17.53
2022-08-27T16:08:11.194Z,20.13
2022-08-27T16:10:14.454Z,17.70
2022-08-27T16:12:26.988Z,15.70
2022-08-27T16:14:29.761Z,16.97
2022-08-27T16:16:32.468Z,17.57
2022-08-27T16:18:35.261Z,20.57
2022-08-27T16:20:37.427Z,23.30
2022-08-27T16:22:39.742Z,18.67
2022-08-27T16:24:42.043Z,19.37
2022-08-27T16:26:44.439Z,16.67
2022-08-27T16:28:46.613Z,22.00
2022-08-27T16:30:51.382Z,33.43
2022-08-27T16:32:53.845Z,21.33
2022-08-27T16:34:56.285Z,19.50
2022-08-27T16:36:58.514Z,21.03
2022-08-27T16:39:00.688Z,21.60
2022-08-27T16:41:03.720Z,22.23
2022-08-27T16:43:06.282Z,18.53
2022-08-27T16:45:12.439Z,22.97
2022-08-27T16:47:16.447Z,25.80
2022-08-27T16:49:37.161Z,21.20
2022-08-27T16:51:39.432Z,18.97
2022-08-27T16:53:42.639Z,23.43
2022-08-27T16:55:45.580Z,23.80
2022-08-27T16:57:47.776Z,24.50
2022-08-27T16:59:49.936Z,11.80
2022-08-27T17:01:53.329Z,8.50
2022-08-27T17:04:08.832Z,8.60
2022-08-27T17:06:14.283Z,7.87
2022-08-27T17:08:18.891Z,10.07
2022-08-27T17:10:21.671Z,9.23
2022-08-27T17:12:24.216Z,7.70
2022-08-27T17:14:26.893Z,11.50
2022-08-27T17:16:31.530Z,9.30
2022-08-27T17:18:34.937Z,9.80
2022-08-27T17:20:37.519Z,10.27
2022-08-27T17:22:39.659Z,13.80
2022-08-27T17:24:41.879Z,15.20
2022-08-27T17:26:44.121Z,13.73
2022-08-27T17:28:46.795Z,16.43
2022-08-27T17:30:49.025Z,14.53
2022-08-27T17:32:51.275Z,19.30
2022-08-27T17:34:53.920Z,14.00
2022-08-27T17:36:56.116Z,15.00
2022-08-27T17:38:58.950Z,19.13
2022-08-27T17:41:06.224Z,25.53
2022-08-27T17:43:08.435Z,22.67
2022-08-27T17:45:11.054Z,21.80
2022-08-27T17:47:13.295Z,23.40
2022-08-27T17:49:16.803Z,25.07
2022-08-27T17:51:22.207Z,20.70
2022-08-27T17:53:24.475Z,24.93
2022-08-27T17:55:26.650Z,21.73
2022-08-27T17:57:40.484Z,23.90
2022-08-27T17:59:43.847Z,21.77
2022-08-27T18:01:46.139Z,20.90
2022-08-27T18:03:48.470Z,24.30
2022-08-27T18:05:50.599Z,24.37
2022-08-27T18:07:53.412Z,26.37
2022-08-27T18:09:55.699Z,30.27
2022-08-27T18:11:58.405Z,27.73
2022-08-27T18:14:04.732Z,25.00
2022-08-27T18:16:07.835Z,27.07
2022-08-27T18:18:10.743Z,24.47
2022-08-27T18:20:14.624Z,25.63
2022-08-27T18:22:18.253Z,25.40
2022-08-27T18:24:20.633Z,27.60
2022-08-27T18:26:26.788Z,36.73
2022-08-27T18:28:29.032Z,23.47
2022-08-27T18:30:31.668Z,26.43
2022-08-27T18:32:34.040Z,31.63
2022-08-27T18:34:36.339Z,24.30
2022-08-27T18:36:42.940Z,24.60
2022-08-27T18:38:47.124Z,26.40
2022-08-27T18:40:50.095Z,23.77
2022-08-27T18:42:56.365Z,24.70
2022-08-27T18:45:01.454Z,24.33
2022-08-27T18:47:06.239Z,26.27
2022-08-27T18:49:08.420Z,24.53
2022-08-27T18:51:15.900Z,24.33
2022-08-27T18:53:20.260Z,21.00
2022-08-27T18:55:25.720Z,22.60
2022-08-27T18:57:27.859Z,25.90
2022-08-27T18:59:30.102Z,29.50
2022-08-27T19:01:32.488Z,40.10
2022-08-27T19:03:39.400Z,30.90
2022-08-27T19:05:43.157Z,29.10
2022-08-27T19:07:45.429Z,25.77
2022-08-27T19:09:47.656Z,23.07
2022-08-27T19:11:51.537Z,22.47
2022-08-27T19:13:53.650Z,21.57
2022-08-27T19:15:59.760Z,23.37
2022-08-27T19:18:04.692Z,24.63
2022-08-27T19:20:07.456Z,21.53
2022-08-27T19:22:09.558Z,23.43
2022-08-27T19:24:11.679Z,23.43
2022-08-27T19:26:19.420Z,23.73
2022-08-27T19:28:27.889Z,25.10
2022-08-27T19:30:30.058Z,25.47
2022-08-27T19:32:34.075Z,25.70
2022-08-27T19:34:36.242Z,24.77
2022-08-27T19:36:41.003Z,26.77
2022-08-27T19:38:44.045Z,34.97
2022-08-27T19:40:46.154Z,31.77
2022-08-27T19:42:48.462Z,33.03
2022-08-27T19:44:50.588Z,27.77
2022-08-27T19:46:53.150Z,34.70
2022-08-27T19:48:55.539Z,29.30
2022-08-27T19:50:58.277Z,30.10
2022-08-27T19:53:00.543Z,30.23
2022-08-27T19:55:13.718Z,45.30
2022-08-27T19:57:16.591Z,29.57
2022-08-27T19:59:21.872Z,32.57
2022-08-27T20:01:24.184Z,29.07
2022-08-27T20:03:26.545Z,28.47
2022-08-27T20:05:28.755Z,29.07
2022-08-27T20:07:31.065Z,26.13
2022-08-27T20:09:37.177Z,30.33
2022-08-27T20:11:39.366Z,25.03
2022-08-27T20:13:50.589Z,28.07
2022-08-27T20:15:52.984Z,28.23
2022-08-27T20:17:55.511Z,28.30
2022-08-27T20:19:58.863Z,23.20
2022-08-27T20:22:01.283Z,28.77
2022-08-27T20:24:04.879Z,27.50
2022-08-27T20:26:07.144Z,29.30
2022-08-27T20:28:35.532Z,29.00
2022-08-27T20:30:31.479Z,34.20
2022-08-27T20:32:35.605Z,29.10
2022-08-27T20:34:37.813Z,25.80
2022-08-27T20:36:40.307Z,29.40
2022-08-27T20:38:43.739Z,24.70
2022-08-27T20:40:46.518Z,28.33
2022-08-27T20:42:48.931Z,23.07
2022-08-27T20:44:51.078Z,27.60
2022-08-27T20:46:58.413Z,25.90
2022-08-27T20:49:00.698Z,23.97
2022-08-27T20:51:02.852Z,25.60
2022-08-27T20:53:05.083Z,25.73
2022-08-27T20:55:08.930Z,24.17
2022-08-27T20:57:11.246Z,27.57
2022-08-27T20:59:32.058Z,24.40
2022-08-27T21:01:34.863Z,22.20
2022-08-27T21:03:37.187Z,23.40
2022-08-27T21:05:41.482Z,25.00
2022-08-27T21:07:44.861Z,27.43
2022-08-27T21:09:56.369Z,19.30
2022-08-27T21:11:59.794Z,22.37
2022-08-27T21:14:02.342Z,22.97
2022-08-27T21:16:04.886Z,17.00
2022-08-27T21:18:07.150Z,17.67
2022-08-27T21:20:13.103Z,23.90
2022-08-27T21:22:15.212Z,20.30
2022-08-27T21:24:18.426Z,19.73
2022-08-27T21:26:22.903Z,19.97
2022-08-27T21:28:25.141Z,19.57
2022-08-27T21:30:27.448Z,17.70
2022-08-27T21:32:29.575Z,18.60
2022-08-27T21:34:31.708Z,16.43
2022-08-27T21:36:34.571Z,19.80
2022-08-27T21:38:36.682Z,19.70
2022-08-27T21:40:39.197Z,20.30
2022-08-27T21:42:41.411Z,18.43
2022-08-27T21:44:43.707Z,20.00
2022-08-27T21:46:45.930Z,21.33
2022-08-27T21:48:50.042Z,23.80
2022-08-27T21:51:08.498Z,16.23
2022-08-27T21:53:10.549Z,19.40
2022-08-27T21:55:13.217Z,21.10
2022-08-27T21:57:15.814Z,15.13
2022-08-27T21:59:17.957Z,18.03
2022-08-27T22:01:20.292Z,15.30
2022-08-27T22:03:23.763Z,15.40
2022-08-27T22:05:26.098Z,17.30
2022-08-27T22:07:28.173Z,16.43
2022-08-27T22:09:30.365Z,16.27
2022-08-27T22:11:32.453Z,15.40
2022-08-27T22:13:34.567Z,19.30
2022-08-27T22:15:37.108Z,14.87
2022-08-27T22:17:39.178Z,17.23
2022-08-27T22:19:41.805Z,14.67
2022-08-27T22:21:44.172Z,20.53
2022-08-27T22:23:46.339Z,19.07
2022-08-27T22:25:48.961Z,19.83
2022-08-27T22:27:51.149Z,18.60
2022-08-27T22:29:53.455Z,20.50
2022-08-27T22:31:55.612Z,19.10
2022-08-27T22:33:58.446Z,18.00
2022-08-27T22:36:00.678Z,12.73
2022-08-27T22:38:02.968Z,17.03
2022-08-27T22:40:08.690Z,14.67
2022-08-27T22:42:21.372Z,16.73
2022-08-27T22:44:24.385Z,15.30
2022-08-27T22:46:26.757Z,25.13
2022-08-27T22:48:28.954Z,16.10
2022-08-27T22:50:31.198Z,16.17
2022-08-27T22:52:33.714Z,16.77
2022-08-27T22:54:35.938Z,17.80
2022-08-27T22:56:38.539Z,18.43
2022-08-27T22:58:41.179Z,18.27
2022-08-27T23:00:52.004Z,28.33
2022-08-27T23:02:55.667Z,18.30
2022-08-27T23:04:57.856Z,18.40
2022-08-27T23:07:02.873Z,17.30
2022-08-27T23:09:04.971Z,16.73
2022-08-27T23:11:07.203Z,15.23
2022-08-27T23:13:10.403Z,20.67
2022-08-27T23:15:14.136Z,19.73
2022-08-27T23:17:16.172Z,17.00
2022-08-27T23:19:18.661Z,19.10
2022-08-27T23:21:21.106Z,24.30
2022-08-27T23:23:26.754Z,17.93
2022-08-27T23:25:51.765Z,22.43
2022-08-27T23:27:54.198Z,17.30
2022-08-27T23:29:57.712Z,19.00
2022-08-27T23:32:00.201Z,17.80
2022-08-27T23:34:02.345Z,14.77
2022-08-27T23:36:06.325Z,11.10
2022-08-27T23:38:08.455Z,26.90
2022-08-27T23:40:11.877Z,18.10
2022-08-27T23:42:16.423Z,18.80
2022-08-27T23:44:18.386Z,9.97
2022-08-27T23:46:22.690Z,12.23
2022-08-27T23:48:24.782Z,14.70
2022-08-27T23:50:33.873Z,15.33
2022-08-27T23:52:37.183Z,23.80
2022-08-27T23:54:39.917Z,13.50
2022-08-27T23:56:42.263Z,15.07
2022-08-27T23:58:45.465Z,13.17
